Time;durP1;ratioP1;P1;durP2;ratioP2;P2;SDS_P1;SDS_P2;PMS_P1;PMS_P2;Temp;Humidity;BMP_temperature;BMP_pressure;BME280_temperature;BME280_humidity;BME280_pressure;Samples;Min_cycle;Max_cycle;Signal;HPM_P1;HPM_P2
2021/08/25 00:01:00;;;;;;;12.25;10.75;;;;;;;11.90;100.00;93557.06;2098030;28;20025;-86
2021/08/25 00:02:02;;;;;;;13.10;11.73;;;;;;;11.96;100.00;93558.09;2089789;28;20029;-86
2021/08/25 00:03:05;;;;;;;13.85;11.35;;;;;;;11.93;100.00;93553.53;2089713;28;20508;-85
2021/08/25 00:04:06;;;;;;;12.98;11.55;;;;;;;11.76;100.00;93550.00;2089620;28;20371;-87
2021/08/25 00:05:08;;;;;;;14.80;11.63;;;;;;;11.81;100.00;93546.88;2089525;28;20568;-87
2021/08/25 00:06:10;;;;;;;13.27;11.77;;;;;;;11.83;100.00;93548.00;2089674;28;20028;-87
2021/08/25 00:07:11;;;;;;;14.35;12.35;;;;;;;11.84;100.00;93540.72;2097657;28;20028;-88
2021/08/25 00:08:12;;;;;;;13.93;12.35;;;;;;;11.78;100.00;93540.41;2097531;28;20086;-86
2021/08/25 00:09:13;;;;;;;14.07;12.15;;;;;;;11.78;100.00;93539.66;2093069;28;20054;-85
2021/08/25 00:10:14;;;;;;;13.38;11.63;;;;;;;11.81;100.00;93538.84;2097838;28;20021;-89
2021/08/25 00:11:15;;;;;;;13.85;11.35;;;;;;;11.82;100.00;93541.13;2093512;28;20054;-85
2021/08/25 00:12:16;;;;;;;14.43;12.57;;;;;;;11.92;100.00;93536.72;2102141;28;20032;-86
2021/08/25 00:13:18;;;;;;;15.57;12.25;;;;;;;11.84;100.00;93536.09;2106059;28;20502;-86
2021/08/25 00:14:19;;;;;;;14.63;12.30;;;;;;;11.89;100.00;93544.81;2089672;28;20045;-85
2021/08/25 00:15:20;;;;;;;16.10;12.23;;;;;;;11.84;100.00;93538.03;2089082;28;20067;-87
2021/08/25 00:16:22;;;;;;;15.00;13.07;;;;;;;11.80;100.00;93538.06;2089382;28;20033;-86
2021/08/25 00:17:23;;;;;;;14.00;12.65;;;;;;;11.81;100.00;93534.25;2089719;28;20025;-86
2021/08/25 00:18:24;;;;;;;15.10;13.38;;;;;;;11.87;100.00;93533.78;2089453;28;20028;-85
2021/08/25 00:19:25;;;;;;;15.25;13.00;;;;;;;11.79;100.00;93525.09;2089350;28;20111;-85
2021/08/25 00:20:26;;;;;;;16.23;12.85;;;;;;;11.74;100.00;93523.66;2093531;28;20233;-85
2021/08/25 00:21:27;;;;;;;14.98;12.73;;;;;;;11.74;100.00;93526.34;2089228;28;20067;-87
2021/08/25 00:22:28;;;;;;;15.02;13.43;;;;;;;11.66;100.00;93524.94;2089708;28;20429;-85
2021/08/25 00:23:29;;;;;;;14.70;13.10;;;;;;;11.62;100.00;93529.63;2089436;28;20025;-87
2021/08/25 00:24:30;;;;;;;15.05;13.55;;;;;;;11.65;100.00;93526.13;2089575;28;20033;-86
2021/08/25 00:25:31;;;;;;;12.27;11.18;;;;;;;11.70;100.00;93527.56;2097748;28;20056;-86
2021/08/25 00:26:32;;;;;;;17.33;12.70;;;;;;;11.67;100.00;93525.72;2097206;28;20032;-86
2021/08/25 00:27:33;;;;;;;14.05;12.63;;;;;;;11.62;100.00;93520.84;2097586;28;20039;-86
2021/08/25 00:28:35;;;;;;;15.55;12.65;;;;;;;11.64;100.00;93516.59;2097591;28;20029;-88
2021/08/25 00:29:37;;;;;;;13.70;12.30;;;;;;;11.63;100.00;93525.03;2097602;28;20095;-85
2021/08/25 00:30:38;;;;;;;13.98;12.35;;;;;;;11.63;100.00;93520.41;2089484;28;20424;-87
2021/08/25 00:31:40;;;;;;;13.48;11.50;;;;;;;11.75;100.00;93521.72;2093471;28;20056;-88
2021/08/25 00:32:40;;;;;;;15.13;12.75;;;;;;;11.68;100.00;93524.56;2101355;28;20436;-88
2021/08/25 00:33:41;;;;;;;13.93;12.48;;;;;;;11.74;100.00;93522.91;2089422;28;20116;-86
2021/08/25 00:34:42;;;;;;;14.98;13.10;;;;;;;11.73;100.00;93524.06;2089219;28;20076;-85
2021/08/25 00:35:43;;;;;;;14.40;12.90;;;;;;;11.66;100.00;93521.53;2089395;28;20025;-86
2021/08/25 00:36:44;;;;;;;18.80;12.70;;;;;;;11.67;100.00;93521.09;2089151;28;20414;-87
2021/08/25 00:37:45;;;;;;;14.15;12.40;;;;;;;11.68;100.00;93517.28;2105369;28;20082;-87
2021/08/25 00:38:46;;;;;;;16.00;13.32;;;;;;;11.69;100.00;93518.03;2097502;28;20082;-85
2021/08/25 00:39:47;;;;;;;14.82;12.40;;;;;;;11.69;100.00;93518.03;2088988;28;20431;-87
2021/08/25 00:40:48;;;;;;;14.50;12.23;;;;;;;11.68;100.00;93511.16;2089285;28;20025;-86
2021/08/25 00:41:49;;;;;;;14.50;12.93;;;;;;;11.67;100.00;93521.09;2097555;28;20481;-87
2021/08/25 00:42:50;;;;;;;17.90;13.57;;;;;;;11.70;100.00;93512.25;2093346;28;20025;-88
2021/08/25 00:43:50;;;;;;;14.23;12.75;;;;;;;11.70;100.00;93509.56;2093031;28;20531;-86
2021/08/25 00:44:52;;;;;;;16.20;12.95;;;;;;;11.63;100.00;93514.31;2101516;28;20049;-88
2021/08/25 00:45:52;;;;;;;14.65;12.73;;;;;;;11.66;100.00;93513.50;2105871;28;20057;-86
2021/08/25 00:46:53;;;;;;;13.70;12.30;;;;;;;11.76;100.00;93505.22;2096350;28;20471;-88
2021/08/25 00:47:54;;;;;;;14.75;12.85;;;;;;;11.70;100.00;93512.25;2105857;28;20027;-89
2021/08/25 00:48:56;;;;;;;13.77;12.48;;;;;;;11.65;100.00;93507.38;2114206;28;20047;-86
2021/08/25 00:49:57;;;;;;;13.70;12.20;;;;;;;11.71;100.00;93510.31;2097075;28;20047;-84
2021/08/25 00:50:58;;;;;;;14.05;12.55;;;;;;;11.71;100.00;93508.41;2089129;28;20028;-86
2021/08/25 00:52:00;;;;;;;18.33;12.75;;;;;;;11.65;100.00;93509.31;2089306;28;20518;-87
2021/08/25 00:53:06;;;;;;;14.30;12.90;;;;;;;11.71;100.00;93505.72;2089251;28;20033;-85
2021/08/25 00:54:07;;;;;;;14.30;12.35;;;;;;;11.73;100.00;93510.69;2098252;28;20032;-87
2021/08/25 00:55:11;;;;;;;15.95;13.15;;;;;;;11.70;100.00;93511.50;2093882;28;20028;-87
2021/08/25 00:56:12;;;;;;;14.00;12.45;;;;;;;11.66;100.00;93508.13;2093705;28;20048;-85
2021/08/25 00:57:13;;;;;;;15.90;12.23;;;;;;;11.66;100.00;93500.09;2104860;28;20024;-87
2021/08/25 00:58:15;;;;;;;14.38;12.68;;;;;;;11.65;100.00;93506.63;2097478;28;20515;-88
2021/08/25 00:59:17;;;;;;;14.63;12.05;;;;;;;11.66;100.00;93506.22;2089090;28;20052;-86
2021/08/25 01:00:18;;;;;;;14.85;11.90;;;;;;;11.56;100.00;93505.25;2093882;28;20470;-86
2021/08/25 01:01:41;;;;;;;13.82;12.35;;;;;;;11.63;100.00;93499.00;2097059;28;20032;-85
2021/08/25 01:02:44;;;;;;;13.38;11.98;;;;;;;11.60;100.00;93499.84;2100411;28;20042;-87
2021/08/25 01:03:51;;;;;;;13.73;12.30;;;;;;;11.64;100.00;93499.78;2089938;28;20165;-86
2021/08/25 01:04:53;;;;;;;15.77;12.65;;;;;;;11.62;100.00;93505.53;2099060;28;20035;-87
2021/08/25 01:05:56;;;;;;;15.20;12.23;;;;;;;11.59;100.00;93499.09;2097524;28;20461;-88
2021/08/25 01:06:58;;;;;;;13.75;12.35;;;;;;;11.55;100.00;93505.69;2088951;28;20051;-87
2021/08/25 01:08:02;;;;;;;14.43;12.43;;;;;;;11.53;100.00;93506.06;2097224;28;20028;-85
2021/08/25 01:09:03;;;;;;;13.50;12.10;;;;;;;11.47;100.00;93507.72;2097600;28;20532;-85
2021/08/25 01:10:27;;;;;;;14.25;12.32;;;;;;;11.58;100.00;93502.16;2097247;28;20040;-88
2021/08/25 01:11:32;;;;;;;14.05;12.65;;;;;;;11.57;100.00;93508.69;2099579;28;20391;-87
2021/08/25 01:12:33;;;;;;;15.30;12.07;;;;;;;11.54;100.00;93512.94;2105896;28;20118;-86
2021/08/25 01:13:35;;;;;;;14.88;13.20;;;;;;;11.51;100.00;93508.41;2097350;28;20028;-85
2021/08/25 01:14:38;;;;;;;16.88;12.65;;;;;;;11.55;100.00;93511.03;2089516;28;20079;-87
2021/08/25 01:15:41;;;;;;;15.43;13.10;;;;;;;11.52;100.00;93511.84;2097679;28;20055;-85
2021/08/25 01:16:45;;;;;;;16.05;12.82;;;;;;;11.63;100.00;93509.72;2089579;28;20493;-87
2021/08/25 01:17:48;;;;;;;14.13;12.68;;;;;;;11.55;100.00;93516.38;2097732;28;20029;-87
2021/08/25 01:18:50;;;;;;;13.77;12.13;;;;;;;11.54;100.00;93509.50;2105904;28;20027;-84
2021/08/25 01:20:24;;;;;;;15.02;12.68;;;;;;;11.59;100.00;93512.47;2105691;28;20106;-90
2021/08/25 01:21:27;;;;;;;13.70;12.15;;;;;;;11.63;100.00;93506.28;2085587;28;20548;-87
2021/08/25 01:22:28;;;;;;;15.98;12.43;;;;;;;11.61;100.00;93506.69;2097383;28;20044;-88
2021/08/25 01:23:34;;;;;;;14.10;12.57;;;;;;;11.51;100.00;93508.41;2088645;28;20033;-85
2021/08/25 01:24:36;;;;;;;18.80;12.93;;;;;;;11.56;100.00;93499.91;2090482;28;20028;-89
2021/08/25 01:25:37;;;;;;;14.60;13.15;;;;;;;11.47;100.00;93502.38;2088970;28;20025;-85
2021/08/25 01:26:40;;;;;;;15.70;13.45;;;;;;;11.54;100.00;93504.91;2089225;28;20086;-87
2021/08/25 01:27:45;;;;;;;15.32;13.73;;;;;;;11.54;100.00;93496.88;2097369;28;20424;-88
2021/08/25 01:28:50;;;;;;;15.63;13.35;;;;;;;11.48;100.00;93500.44;2106451;28;20035;-86
2021/08/25 01:29:52;;;;;;;15.98;13.43;;;;;;;11.47;100.00;93499.69;2101176;28;20024;-88
2021/08/25 01:30:53;;;;;;;13.73;12.32;;;;;;;11.45;100.00;93504.69;2089086;28;20021;-87
2021/08/25 01:31:55;;;;;;;16.25;13.18;;;;;;;11.45;100.00;93504.69;2089156;28;20028;-85
2021/08/25 01:32:59;;;;;;;15.23;13.23;;;;;;;11.55;100.00;93503.00;2088948;28;20025;-86
2021/08/25 01:34:05;;;;;;;15.07;13.13;;;;;;;11.52;100.00;93504.56;2098003;28;20032;-87
2021/08/25 01:35:07;;;;;;;15.43;13.77;;;;;;;11.47;100.00;93506.97;2104814;28;20027;-85
2021/08/25 01:36:17;;;;;;;15.75;13.95;;;;;;;11.45;100.00;93506.63;2089072;28;20116;-88
2021/08/25 01:37:19;;;;;;;13.90;12.50;;;;;;;11.42;100.00;93499.44;2095565;28;20025;-84
2021/08/25 01:38:33;;;;;;;18.05;13.98;;;;;;;11.42;100.00;93504.78;2096824;28;20032;-86
2021/08/25 01:39:34;;;;;;;15.35;13.35;;;;;;;11.42;100.00;93499.44;2097167;28;20604;-84
2021/08/25 01:40:35;;;;;;;15.65;13.32;;;;;;;11.40;100.00;93497.13;2088619;28;20036;-85
2021/08/25 01:41:36;;;;;;;14.48;13.02;;;;;;;11.41;100.00;93500.56;2095454;28;20028;-85
2021/08/25 01:42:37;;;;;;;20.35;13.27;;;;;;;11.45;100.00;93493.97;2096876;28;20582;-85
2021/08/25 01:43:38;;;;;;;15.60;13.57;;;;;;;11.46;100.00;93503.53;2096890;28;20477;-85
2021/08/25 01:44:39;;;;;;;17.38;13.95;;;;;;;11.38;100.00;93490.72;2097198;28;20016;-87
2021/08/25 01:45:40;;;;;;;16.02;14.35;;;;;;;11.41;100.00;93501.31;2096881;28;20020;-86
2021/08/25 01:46:42;;;;;;;15.40;13.85;;;;;;;11.43;100.00;93492.91;2088408;28;20031;-85
2021/08/25 01:47:43;;;;;;;17.05;14.93;;;;;;;11.37;100.00;93494.53;2097396;28;20016;-85
2021/08/25 01:48:44;;;;;;;17.60;14.82;;;;;;;11.34;100.00;93491.53;2097024;28;20401;-87
2021/08/25 01:49:49;;;;;;;17.83;14.55;;;;;;;11.40;100.00;93497.13;2088900;28;20025;-88
2021/08/25 01:50:49;;;;;;;17.15;14.00;;;;;;;11.37;100.00;93494.53;2097900;28;20025;-86
2021/08/25 01:51:51;;;;;;;16.25;13.60;;;;;;;11.40;100.00;93491.03;2097208;28;20421;-85
2021/08/25 01:52:51;;;;;;;15.65;14.05;;;;;;;11.46;100.00;93500.88;2105032;28;20070;-87
2021/08/25 01:53:52;;;;;;;17.05;15.40;;;;;;;11.40;100.00;93499.06;2088714;28;20037;-84
2021/08/25 01:54:53;;;;;;;16.90;14.23;;;;;;;11.38;100.00;93488.03;2090746;28;20029;-90
2021/08/25 01:55:54;;;;;;;15.50;13.90;;;;;;;11.35;100.00;93494.94;2080503;28;20025;-85
2021/08/25 01:56:55;;;;;;;16.33;14.63;;;;;;;11.38;100.00;93496.06;2090115;28;20036;-87
2021/08/25 01:57:56;;;;;;;16.55;14.80;;;;;;;11.39;100.00;93484.94;2088131;28;20025;-87
2021/08/25 01:58:58;;;;;;;17.40;13.88;;;;;;;11.39;100.00;93495.63;2096852;28;20025;-87
2021/08/25 01:59:59;;;;;;;17.98;14.50;;;;;;;11.43;100.00;93490.97;2097236;28;20029;-87
2021/08/25 02:00:59;;;;;;;16.27;14.40;;;;;;;11.45;100.00;93493.97;2105255;28;20055;-86
2021/08/25 02:02:00;;;;;;;16.58;14.68;;;;;;;11.40;100.00;93491.78;2105336;28;20028;-86
2021/08/25 02:03:01;;;;;;;17.38;15.13;;;;;;;11.37;100.00;93494.53;2096932;28;20032;-88
2021/08/25 02:04:03;;;;;;;16.70;15.00;;;;;;;11.39;100.00;93495.63;2088384;28;20028;-87
2021/08/25 02:05:04;;;;;;;16.42;14.40;;;;;;;11.40;100.00;93483.75;2097250;28;20134;-87
2021/08/25 02:06:05;;;;;;;16.33;14.65;;;;;;;11.38;100.00;93482.69;2099697;28;20113;-85
2021/08/25 02:07:06;;;;;;;16.65;14.13;;;;;;;11.38;100.00;93488.03;2092661;28;20506;-86
2021/08/25 02:08:07;;;;;;;16.40;14.70;;;;;;;11.34;100.00;93488.09;2096741;28;20024;-84
2021/08/25 02:09:08;;;;;;;16.15;14.55;;;;;;;11.37;100.00;93481.94;2088629;28;20382;-87
2021/08/25 02:10:09;;;;;;;17.65;15.38;;;;;;;11.43;100.00;93479.53;2104934;28;20110;-85
2021/08/25 02:11:10;;;;;;;16.42;14.65;;;;;;;11.40;100.00;93481.09;2096612;28;20024;-87
2021/08/25 02:12:11;;;;;;;15.55;13.98;;;;;;;11.40;100.00;93483.00;2096957;28;20477;-88
2021/08/25 02:13:12;;;;;;;17.58;14.50;;;;;;;11.41;100.00;93477.22;2113490;28;20035;-87
2021/08/25 02:14:13;;;;;;;18.27;15.30;;;;;;;11.32;100.00;93479.69;2113601;28;20468;-87
2021/08/25 02:15:14;;;;;;;16.50;14.73;;;;;;;11.41;100.00;93476.47;2105077;28;20020;-85
2021/08/25 02:16:14;;;;;;;17.67;14.75;;;;;;;11.36;100.00;93477.72;2096642;28;20486;-86
2021/08/25 02:17:15;;;;;;;18.40;15.05;;;;;;;11.34;100.00;93472.78;2088527;28;20024;-86
2021/08/25 02:18:16;;;;;;;18.23;15.15;;;;;;;11.33;100.00;93465.94;2097055;28;20126;-86
2021/08/25 02:19:17;;;;;;;18.00;15.68;;;;;;;11.32;100.00;93472.44;2088784;28;20080;-87
2021/08/25 02:20:18;;;;;;;20.23;14.70;;;;;;;11.35;100.00;93468.19;2092905;28;20074;-88
2021/08/25 02:21:21;;;;;;;17.23;14.98;;;;;;;11.41;100.00;93471.88;2104438;28;20032;-88
2021/08/25 02:22:22;;;;;;;18.67;14.98;;;;;;;11.41;100.00;93468.44;2089204;28;20497;-88
2021/08/25 02:23:23;;;;;;;18.60;14.63;;;;;;;11.44;100.00;93468.38;2096783;28;20060;-86
2021/08/25 02:24:24;;;;;;;17.08;15.30;;;;;;;11.37;100.00;93463.19;2096919;28;20032;-89
2021/08/25 02:25:24;;;;;;;17.48;15.63;;;;;;;11.28;100.00;93468.31;2105293;28;20032;-85
2021/08/25 02:26:25;;;;;;;16.45;14.38;;;;;;;11.37;100.00;93468.53;2113054;28;20479;-86
2021/08/25 02:27:26;;;;;;;18.80;15.32;;;;;;;11.34;100.00;93467.44;2104690;28;20039;-85
2021/08/25 02:28:27;;;;;;;16.45;14.80;;;;;;;11.33;100.00;93459.81;2096776;28;20020;-86
2021/08/25 02:29:28;;;;;;;17.00;15.10;;;;;;;11.35;100.00;93457.47;2088686;28;20025;-87
2021/08/25 02:30:29;;;;;;;15.18;13.57;;;;;;;11.25;100.00;93459.19;2088739;28;20342;-83
2021/08/25 02:31:30;;;;;;;17.42;15.63;;;;;;;11.23;100.00;93455.41;2088501;28;20058;-87
2021/08/25 02:32:31;;;;;;;18.33;14.40;;;;;;;11.27;100.00;93454.19;2096639;28;20082;-87
2021/08/25 02:33:32;;;;;;;17.42;15.48;;;;;;;11.27;100.00;93446.16;2096698;28;20029;-87
2021/08/25 02:34:33;;;;;;;15.68;14.02;;;;;;;11.38;100.00;93445.97;2096711;28;20028;-87
2021/08/25 02:35:34;;;;;;;15.98;14.27;;;;;;;11.41;100.00;93441.69;2096793;28;20024;-85
2021/08/25 02:36:35;;;;;;;17.23;15.07;;;;;;;11.29;100.00;93435.81;2088454;28;20044;-86
2021/08/25 02:37:36;;;;;;;15.32;13.55;;;;;;;11.31;100.00;93440.72;2096904;28;20535;-89
2021/08/25 02:38:38;;;;;;;17.48;14.70;;;;;;;11.30;100.00;93447.25;2104585;28;20028;-88
2021/08/25 02:39:39;;;;;;;16.30;14.60;;;;;;;11.24;100.00;93441.63;2089077;28;20025;-88
2021/08/25 02:40:40;;;;;;;15.50;13.77;;;;;;;11.24;100.00;93444.31;2088547;28;20060;-85
2021/08/25 02:41:41;;;;;;;16.08;13.77;;;;;;;11.22;100.00;93441.28;2096862;28;20138;-87
2021/08/25 02:42:42;;;;;;;16.70;14.90;;;;;;;11.16;100.00;93442.19;2094711;28;20024;-86
2021/08/25 02:43:43;;;;;;;18.17;14.90;;;;;;;11.09;100.00;93437.72;2088594;28;20120;-87
2021/08/25 02:44:45;;;;;;;15.82;14.15;;;;;;;11.14;100.00;93439.16;2096598;28;20028;-89
2021/08/25 02:45:46;;;;;;;16.58;14.77;;;;;;;11.08;100.00;93438.88;2096836;28;20505;-88
2021/08/25 02:46:47;;;;;;;16.40;13.88;;;;;;;11.00;100.00;93442.84;2105174;28;20115;-87
2021/08/25 02:47:48;;;;;;;16.17;14.18;;;;;;;11.03;100.00;93442.03;2113496;28;20345;-86
2021/08/25 02:48:49;;;;;;;18.80;14.48;;;;;;;11.10;100.00;93441.88;2113681;28;20020;-88
2021/08/25 02:49:50;;;;;;;15.85;14.25;;;;;;;11.05;100.00;93445.78;2096286;28;20020;-87
2021/08/25 02:50:51;;;;;;;17.10;14.73;;;;;;;11.04;100.00;93438.94;2105498;28;20059;-87
2021/08/25 02:51:52;;;;;;;16.77;15.00;;;;;;;10.97;100.00;93440.97;2105104;28;20043;-87
2021/08/25 02:52:53;;;;;;;16.65;14.80;;;;;;;10.95;100.00;93449.41;2096823;28;20024;-86
2021/08/25 02:53:54;;;;;;;20.52;13.60;;;;;;;10.97;100.00;93436.38;2096815;28;20423;-88
2021/08/25 02:54:54;;;;;;;16.70;14.75;;;;;;;10.99;100.00;93430.63;2096815;28;20025;-86
2021/08/25 02:55:55;;;;;;;18.75;14.88;;;;;;;11.00;100.00;93440.91;2096495;28;20146;-87
2021/08/25 02:56:56;;;;;;;16.02;14.38;;;;;;;11.04;100.00;93438.94;2104953;28;20052;-86
2021/08/25 02:57:58;;;;;;;16.35;14.40;;;;;;;11.03;100.00;93437.44;2096783;28;20048;-87
2021/08/25 02:58:59;;;;;;;16.95;15.15;;;;;;;11.01;100.00;93434.41;2097023;28;20455;-87
2021/08/25 02:59:59;;;;;;;16.85;14.90;;;;;;;11.00;100.00;93432.13;2113551;28;20106;-88
2021/08/25 03:01:00;;;;;;;17.92;15.38;;;;;;;11.03;100.00;93431.34;2104777;28;20031;-87
2021/08/25 03:02:01;;;;;;;16.35;14.75;;;;;;;10.94;100.00;93431.88;2104539;28;20081;-86
2021/08/25 03:03:02;;;;;;;16.60;14.90;;;;;;;10.99;100.00;93428.72;2096618;28;20029;-86
2021/08/25 03:04:03;;;;;;;20.45;15.93;;;;;;;10.99;100.00;93430.63;2088522;28;20032;-87
2021/08/25 03:05:05;;;;;;;16.63;14.82;;;;;;;10.98;100.00;93437.16;2088451;28;20495;-85
2021/08/25 03:06:06;;;;;;;18.38;14.95;;;;;;;10.91;100.00;93431.94;2088706;28;20496;-87
2021/08/25 03:07:07;;;;;;;16.90;14.85;;;;;;;10.87;100.00;93434.66;2096100;28;20038;-87
2021/08/25 03:08:08;;;;;;;16.45;14.57;;;;;;;10.91;100.00;93437.28;2085504;28;20056;-84
2021/08/25 03:09:08;;;;;;;17.92;15.07;;;;;;;10.94;100.00;93431.88;2092527;28;20465;-86
2021/08/25 03:10:10;;;;;;;16.98;15.15;;;;;;;10.81;100.00;93430.97;2097097;28;20035;-87
2021/08/25 03:11:11;;;;;;;15.82;14.23;;;;;;;10.82;100.00;93427.88;2098295;28;20059;-89
2021/08/25 03:12:11;;;;;;;17.63;15.40;;;;;;;10.82;100.00;93430.53;2114048;28;20019;-88
2021/08/25 03:13:12;;;;;;;16.90;15.07;;;;;;;10.86;100.00;93416.38;2106316;28;20074;-87
2021/08/25 03:14:13;;;;;;;17.73;15.93;;;;;;;10.81;100.00;93429.03;2106681;28;20070;-86
2021/08/25 03:15:15;;;;;;;18.13;14.80;;;;;;;10.80;100.00;93421.44;2098114;28;20024;-85
2021/08/25 03:16:16;;;;;;;22.23;14.93;;;;;;;10.82;100.00;93425.19;2098207;28;20032;-85
2021/08/25 03:17:17;;;;;;;17.90;16.08;;;;;;;10.80;100.00;93421.44;2089921;28;20452;-87
2021/08/25 03:18:18;;;;;;;17.65;15.15;;;;;;;10.74;100.00;93418.44;2093859;28;20024;-87
2021/08/25 03:19:19;;;;;;;20.77;15.65;;;;;;;10.68;100.00;93414.75;2097995;28;20029;-86
2021/08/25 03:20:20;;;;;;;18.88;15.13;;;;;;;10.71;100.00;93421.97;2093996;28;20036;-87
2021/08/25 03:21:21;;;;;;;16.30;14.60;;;;;;;10.73;100.00;93410.84;2089978;28;20040;-88
2021/08/25 03:22:22;;;;;;;17.45;15.23;;;;;;;10.70;100.00;93409.75;2093940;28;20394;-85
2021/08/25 03:23:25;;;;;;;17.80;15.20;;;;;;;10.65;100.00;93415.56;2106613;28;20044;-87
2021/08/25 03:24:26;;;;;;;21.02;15.43;;;;;;;10.71;100.00;93413.94;2103057;28;20032;-86
2021/08/25 03:25:27;;;;;;;20.20;15.57;;;;;;;10.68;100.00;93419.34;2098414;28;20021;-87
2021/08/25 03:26:28;;;;;;;16.85;15.23;;;;;;;10.63;100.00;93414.47;2098197;28;20024;-87
2021/08/25 03:27:29;;;;;;;17.70;15.85;;;;;;;10.61;100.00;93412.19;2089751;28;20047;-85
2021/08/25 03:28:30;;;;;;;17.50;15.60;;;;;;;10.58;100.00;93421.03;2089798;28;20029;-89
2021/08/25 03:29:30;;;;;;;18.77;15.60;;;;;;;10.55;100.00;93419.94;2089913;28;20037;-89
2021/08/25 03:30:31;;;;;;;17.25;15.43;;;;;;;10.61;100.00;93420.22;2089511;28;20024;-88
2021/08/25 03:31:32;;;;;;;17.45;15.32;;;;;;;10.65;100.00;93420.16;2098257;28;20020;-90
2021/08/25 03:32:34;;;;;;;17.27;14.80;;;;;;;10.67;100.00;93415.91;2097986;28;20062;-87
2021/08/25 03:33:35;;;;;;;19.38;15.90;;;;;;;10.74;100.00;93415.78;2098230;28;20051;-86
2021/08/25 03:34:36;;;;;;;18.48;15.13;;;;;;;10.71;100.00;93405.94;2098091;28;20079;-88
2021/08/25 03:35:36;;;;;;;16.63;14.90;;;;;;;10.63;100.00;93409.13;2097838;28;20024;-87
2021/08/25 03:36:37;;;;;;;18.63;16.27;;;;;;;10.64;100.00;93407.97;2097650;28;20032;-87
2021/08/25 03:37:38;;;;;;;17.00;15.05;;;;;;;10.65;100.00;93409.47;2089475;28;20026;-87
2021/08/25 03:38:39;;;;;;;16.83;15.07;;;;;;;10.69;100.00;93420.84;2097956;28;20028;-85
2021/08/25 03:39:40;;;;;;;18.08;16.17;;;;;;;10.72;100.00;93409.34;2098188;28;20025;-86
2021/08/25 03:40:41;;;;;;;17.13;15.25;;;;;;;10.65;100.00;93420.16;2098306;28;20433;-85
2021/08/25 03:41:42;;;;;;;19.08;15.40;;;;;;;10.64;100.00;93416.72;2097384;28;20024;-87
2021/08/25 03:42:43;;;;;;;16.38;14.68;;;;;;;10.72;100.00;93418.13;2089842;28;20458;-87
2021/08/25 03:43:44;;;;;;;16.13;14.45;;;;;;;10.68;100.00;93419.34;2089859;28;20025;-85
2021/08/25 03:44:45;;;;;;;16.98;15.23;;;;;;;10.73;100.00;93421.53;2089996;28;20029;-88
2021/08/25 03:45:46;;;;;;;16.13;14.43;;;;;;;10.67;100.00;93417.81;2089887;28;20025;-88
2021/08/25 03:46:47;;;;;;;17.17;15.38;;;;;;;10.70;100.00;93415.09;2089448;28;20160;-87
2021/08/25 03:47:48;;;;;;;18.23;15.63;;;;;;;10.72;100.00;93420.03;2097540;28;20051;-86
2021/08/25 03:48:49;;;;;;;18.08;15.95;;;;;;;10.71;100.00;93426.53;2098036;28;20079;-87
2021/08/25 03:49:50;;;;;;;17.95;16.08;;;;;;;10.73;100.00;93419.63;2106473;28;20031;-87
2021/08/25 03:50:51;;;;;;;17.23;15.32;;;;;;;10.72;100.00;93417.38;2098138;28;20025;-88
2021/08/25 03:51:52;;;;;;;17.58;15.77;;;;;;;10.77;100.00;93424.91;2089445;28;20496;-88
2021/08/25 03:52:53;;;;;;;17.75;15.98;;;;;;;10.78;100.00;93421.81;2106037;28;20111;-86
2021/08/25 03:53:54;;;;;;;17.00;15.20;;;;;;;10.75;100.00;93427.22;2106190;28;20365;-87
2021/08/25 03:54:55;;;;;;;17.15;15.20;;;;;;;10.74;100.00;93415.03;2089763;28;20591;-86
2021/08/25 03:55:56;;;;;;;17.10;15.40;;;;;;;10.70;100.00;93415.09;2098027;28;20024;-87
2021/08/25 03:56:57;;;;;;;17.20;15.38;;;;;;;10.65;100.00;93417.47;2097765;28;20508;-85
2021/08/25 03:57:58;;;;;;;16.60;14.85;;;;;;;10.69;100.00;93426.19;2106388;28;20103;-88
2021/08/25 03:58:58;;;;;;;17.77;15.90;;;;;;;10.72;100.00;93422.72;2097237;28;20028;-87
2021/08/25 03:59:59;;;;;;;17.85;16.05;;;;;;;10.71;100.00;93424.63;2097954;28;20472;-86
2021/08/25 04:01:00;;;;;;;18.45;15.40;;;;;;;10.72;100.00;93428.06;2097934;28;20481;-88
2021/08/25 04:02:01;;;;;;;18.48;15.40;;;;;;;10.68;100.00;93416.69;2089472;28;20021;-86
2021/08/25 04:03:02;;;;;;;18.98;15.63;;;;;;;10.66;100.00;93419.00;2087959;28;20116;-87
2021/08/25 04:04:06;;;;;;;18.08;15.82;;;;;;;10.73;100.00;93422.31;2099949;28;20036;-86
2021/08/25 04:05:08;;;;;;;19.17;15.10;;;;;;;10.66;100.00;93424.34;2098273;28;20493;-87
2021/08/25 04:06:09;;;;;;;15.88;14.23;;;;;;;10.76;100.00;93426.09;2089804;28;20021;-86
2021/08/25 04:07:10;;;;;;;17.90;15.85;;;;;;;10.75;100.00;93421.88;2093837;28;20124;-87
2021/08/25 04:08:11;;;;;;;18.98;15.23;;;;;;;10.75;100.00;93419.97;2089699;28;20387;-86
2021/08/25 04:09:12;;;;;;;17.15;15.38;;;;;;;10.66;100.00;93419.00;2089524;28;20055;-87
2021/08/25 04:10:13;;;;;;;20.35;15.02;;;;;;;10.74;100.00;93420.38;2092404;28;20028;-85
2021/08/25 04:11:18;;;;;;;19.58;16.45;;;;;;;10.74;100.00;93420.38;2101945;28;20062;-85
2021/08/25 04:12:19;;;;;;;17.13;15.18;;;;;;;10.66;100.00;93424.34;2102753;28;20061;-87
2021/08/25 04:13:20;;;;;;;17.65;15.75;;;;;;;10.64;100.00;93422.06;2106285;27;20380;-87
2021/08/25 04:14:21;;;;;;;16.85;15.05;;;;;;;10.62;100.00;93424.38;2114449;28;20023;-86
2021/08/25 04:15:22;;;;;;;16.90;15.10;;;;;;;10.62;100.00;93424.38;2106080;28;20436;-85
2021/08/25 04:16:23;;;;;;;18.60;15.63;;;;;;;10.64;100.00;93427.44;2105835;28;20031;-85
2021/08/25 04:17:24;;;;;;;18.17;15.40;;;;;;;10.63;100.00;93423.25;2089470;28;20075;-85
2021/08/25 04:18:25;;;;;;;17.95;14.80;;;;;;;10.64;100.00;93424.00;2097899;28;20024;-84
2021/08/25 04:19:26;;;;;;;18.95;16.25;;;;;;;10.63;100.00;93417.91;2114416;28;20418;-86
2021/08/25 04:20:27;;;;;;;18.08;16.17;;;;;;;10.59;100.00;93425.22;2097618;28;20028;-86
2021/08/25 04:21:28;;;;;;;19.55;16.05;;;;;;;10.60;100.00;93421.38;2097109;28;20024;-84
2021/08/25 04:22:29;;;;;;;17.75;15.95;;;;;;;10.60;100.00;93424.06;2097272;28;20036;-85
2021/08/25 04:23:30;;;;;;;18.60;14.32;;;;;;;10.59;100.00;93417.19;2089485;28;20036;-87
2021/08/25 04:24:31;;;;;;;17.58;15.50;;;;;;;10.45;100.00;93426.22;2089330;28;20516;-87
2021/08/25 04:25:32;;;;;;;18.45;15.68;;;;;;;10.51;100.00;93429.16;2097735;28;20024;-84
2021/08/25 04:26:32;;;;;;;18.92;14.93;;;;;;;10.51;100.00;93423.81;2097694;28;20028;-87
2021/08/25 04:27:33;;;;;;;18.77;15.70;;;;;;;10.46;100.00;93425.06;2088645;28;20029;-89
2021/08/25 04:28:34;;;;;;;18.55;15.20;;;;;;;10.54;100.00;93429.13;2089606;28;20033;-88
2021/08/25 04:29:35;;;;;;;16.88;15.07;;;;;;;10.54;100.00;93421.09;2089315;28;20442;-87
2021/08/25 04:30:36;;;;;;;19.73;15.65;;;;;;;10.58;100.00;93424.47;2089224;28;20547;-89
2021/08/25 04:31:37;;;;;;;17.05;14.68;;;;;;;10.55;100.00;93430.63;2089370;28;20051;-87
2021/08/25 04:32:38;;;;;;;20.02;15.05;;;;;;;10.57;100.00;93422.19;2088954;28;20029;-84
2021/08/25 04:33:39;;;;;;;16.45;14.80;;;;;;;10.63;100.00;93422.50;2097130;28;20025;-88
2021/08/25 04:34:40;;;;;;;16.27;14.63;;;;;;;10.57;100.00;93422.94;2114322;28;20594;-88
2021/08/25 04:35:41;;;;;;;17.85;15.73;;;;;;;10.56;100.00;93421.44;2114317;28;20032;-85
2021/08/25 04:36:42;;;;;;;18.35;14.93;;;;;;;10.58;100.00;93421.78;2089236;28;20049;-86
2021/08/25 04:37:43;;;;;;;16.35;13.65;;;;;;;10.57;100.00;93417.59;2096964;28;20416;-85
2021/08/25 04:38:44;;;;;;;16.63;14.77;;;;;;;10.56;100.00;93420.69;2097106;28;20090;-89
2021/08/25 04:39:45;;;;;;;19.02;14.88;;;;;;;10.55;100.00;93413.84;2105917;28;20509;-87
2021/08/25 04:40:45;;;;;;;16.23;14.52;;;;;;;10.67;100.00;93420.50;2105957;28;20020;-86